Nearby METAR Reports

 

KSJC - San Jose, California, USA
Distance from station: NE 14km
Updated: 19 January 2018 12:53 PST
Partly cloudy
Partly cloudy
 Wind from NW
Wind: NW 15 km/h
Temperature: 14°C
Dew Point: 4°C
Humidity: 51%
Barometer: 1019 hPa
Clouds: Partly cloudy
Visibility: 16 km
Cloud details: Few Clouds 244 m
Partly cloudy 914 m
2018/01/19 20:53 KSJC 192053Z 31008KT 10SM FEW008 SCT030 14/04 A3009 RMK AO2 SLP188 T01440044 58019
KNUQ - Moffett Nas/Mtn, California, USA
Distance from station: N 14km
Updated: 19 January 2018 12:56 PST
Mostly cloudy
Mostly cloudy
 Wind from N
Wind: N 19 km/h
Temperature: 12°C
Dew Point: 6°C
Humidity: 67%
Barometer: 1019.3 hPa
Clouds: Mostly cloudy
Visibility: 16 km
Cloud details: Mostly cloudy 1829 m
2018/01/19 20:56 KNUQ 192056Z 35010KT 10SM BKN060 12/06 A3010 RMK AO2 SLP194 T01170056 58019
 
KPAO - Palo Alto, California, USA
Distance from station: NNW 23km
Updated: 19 January 2018 11:47 PST
NOT Current
Mostly cloudy
Mostly cloudy
 Wind from N
Wind: N 7 km/h
Temperature: 13°C
Dew Point: 7°C
Humidity: 67%
Barometer: 1020 hPa
Clouds: Mostly cloudy
Visibility: 16 km
Cloud details: Mostly cloudy 914 m
2018/01/19 19:47 KPAO 191947Z 01004KT 10SM BKN030 13/07 A3012
KRHV - San Jose/Reid, California, USA
Distance from station: ENE 19km
Updated: 19 January 2018 12:54 PST
Partly cloudy
Partly cloudy
 Wind from NW
Wind: NW 19 km/h
Temperature: 20°C
Dew Point: 4°C
Humidity: 35%
Barometer: 1018.3 hPa
Clouds: Partly cloudy
Visibility: 16 km
Cloud details: Partly cloudy 914 m
2018/01/19 20:54 KRHV 192054Z 32010KT 10SM SCT030 20/04 A3007
 
KOAK - Oakland, California, USA
Distance from station: NNW 50km
Updated: 19 January 2018 12:53 PST
Partly cloudy
Partly cloudy
 Wind from W
Wind: W 15 km/h
Temperature: 13°C
Dew Point: 6°C
Humidity: 63%
Barometer: 1019.3 hPa
Clouds: Partly cloudy
Visibility: 16 km
Cloud details: Partly cloudy 853 m
2018/01/19 20:53 KOAK 192053Z 27008KT 10SM SCT028 13/06 A3010 RMK AO2 SLP193 T01280056 58015
KSQL - San Carlos Airpo, California, USA
Distance from station: NW 34km
Updated: 19 January 2018 12:47 PST
Mostly cloudy
Mostly cloudy
 Wind from N
Wind: N 9 km/h
Temperature: 12°C
Dew Point: 7°C
Humidity: 72%
Barometer: 1019.3 hPa
Clouds: Mostly cloudy
Visibility: 16 km
Cloud details: Partly cloudy 945 m
Mostly cloudy 1524 m
2018/01/19 20:47 KSQL 192047Z 01005KT 10SM SCT031 BKN050 12/07 A3010
 
KSFO - San Francisco, California, USA
Distance from station: NW 49km
Updated: 19 January 2018 12:56 PST
Mostly cloudy
Mostly cloudy
 Wind from NW
Wind: NW 17 km/h
Temperature: 13°C
Dew Point: 6°C
Humidity: 63%
Barometer: 1019.3 hPa
Clouds: Mostly cloudy
Visibility: 16 km
Cloud details: Mostly cloudy 1402 m
2018/01/19 20:56 KSFO 192056Z 31009KT 10SM BKN046 13/06 A3010 RMK AO2 SLP191 T01330061 58013
KE16 - San Martin, California, USA
Distance from station: ESE 43km
Updated: 19 January 2018 13:10 PST
Partly cloudy
Partly cloudy
 Wind from WNW
Wind: WNW 19 km/h, Gust: 28 km/h
Temperature: 13°C
Dew Point: 4°C
Humidity: 55%
Barometer: 1019 hPa
Clouds: Partly cloudy
Visibility: 16 km
Cloud details: Partly cloudy 1981 m
2018/01/19 21:10 KE16 192110Z AUTO 30010G15KT 10SM SCT065 13/04 A3009 RMK AO2
 
KWVI - Watsonville, California, USA
Distance from station: SSE 44km
Updated: 19 January 2018 12:53 PST
Overcast
Overcast
 Wind from SW
Wind: SW 11 km/h
Temperature: 14°C
Dew Point: 7°C
Humidity: 63%
Barometer: 1019 hPa
Clouds: Overcast
Visibility: 16 km
Cloud details: Few Clouds 914 m
Overcast 1280 m
2018/01/19 20:53 KWVI 192053Z AUTO 23006KT 10SM FEW030 OVC042 14/07 A3009 RMK AO2 SLP189 T01390072 58019 $
KHAF - Half Moon Bay, California, USA
Distance from station: WNW 50km
Updated: 19 January 2018 13:35 PST
Haze, Mostly cloudy
Haze, Mostly cloudy
 Wind from N
Wind: N 28 km/h, Gust: 39 km/h
Temperature: 11°C
Dew Point: 5°C
Humidity: 67%
Barometer: 1018.6 hPa
Summary: Haze
Clouds: Mostly cloudy
Visibility: 6 km
Cloud details: Few Clouds 884 m
Mostly cloudy 1524 m
2018/01/19 21:35 KHAF 192135Z AUTO 01015G21KT 4SM HZ FEW029 BKN050 11/05 A3008 RMK AO2
 
KHWD - Hayward, California, USA
Distance from station: N 44km
Updated: 19 January 2018 12:54 PST
Partly cloudy
Partly cloudy
 Wind from W
Wind: W 19 km/h
Temperature: 14°C
Dew Point: 3°C
Humidity: 48%
Barometer: 1019 hPa
Clouds: Partly cloudy
Visibility: 16 km
Cloud details: Partly cloudy 914 m
2018/01/19 20:54 KHWD 192054Z 28010KT 10SM SCT030 14/03 A3009 RMK AO2 SLP201 T01390033 58015
KLVK - Livermore, California, USA
Distance from station: NNE 51km
Updated: 19 January 2018 12:53 PST
Mostly cloudy
Mostly cloudy
 Wind from WNW
Wind: WNW 11 km/h
Temperature: 12°C
Dew Point: 4°C
Humidity: 58%
Barometer: 1018.6 hPa
Clouds: Mostly cloudy
Visibility: 16 km
Cloud details: Mostly cloudy 1219 m
Mostly cloudy 1676 m
2018/01/19 20:53 KLVK 192053Z 29006KT 10SM BKN040 BKN055 12/04 A3008 RMK AO2 SLP184 T01170039 58019